createdAt,value
2022-10-18T00:02:22.433Z,28.13
2022-10-18T00:05:50.584Z,26.30
2022-10-18T00:09:15.346Z,26.40
2022-10-18T00:12:39.733Z,26.67
2022-10-18T00:16:05.946Z,27.07
2022-10-18T00:19:31.400Z,27.20
2022-10-18T00:22:56.296Z,28.83
2022-10-18T00:26:21.655Z,27.37
2022-10-18T00:29:45.294Z,25.60
2022-10-18T00:33:09.030Z,27.40
2022-10-18T00:36:35.629Z,26.83
2022-10-18T00:40:00.348Z,27.10
2022-10-18T00:43:24.021Z,25.90
2022-10-18T00:46:49.641Z,26.73
2022-10-18T00:50:14.403Z,26.60
2022-10-18T00:53:40.470Z,26.73
2022-10-18T00:57:04.442Z,28.37
2022-10-18T01:00:28.157Z,27.40
2022-10-18T01:03:53.605Z,26.97
2022-10-18T01:07:39.786Z,26.43
2022-10-18T01:11:29.361Z,28.00
2022-10-18T01:15:04.187Z,27.77
2022-10-18T01:18:33.346Z,30.87
2022-10-18T01:22:01.425Z,27.27
2022-10-18T01:25:40.402Z,27.50
2022-10-18T01:29:16.318Z,28.27
2022-10-18T01:32:47.113Z,27.27
2022-10-18T01:36:22.241Z,26.70
2022-10-18T01:39:48.361Z,29.10
2022-10-18T01:43:13.654Z,26.20
2022-10-18T01:46:42.605Z,25.67
2022-10-18T01:50:09.453Z,27.30
2022-10-18T01:53:35.052Z,26.83
2022-10-18T01:57:04.543Z,25.87
2022-10-18T02:00:36.859Z,24.87
2022-10-18T02:04:08.073Z,24.17
2022-10-18T02:07:38.303Z,23.63
2022-10-18T02:11:05.155Z,24.40
2022-10-18T02:14:30.028Z,26.37
2022-10-18T02:17:55.414Z,24.77
2022-10-18T02:21:22.133Z,25.20
2022-10-18T02:24:53.003Z,24.93
2022-10-18T02:28:17.319Z,26.23
2022-10-18T02:31:45.760Z,27.50
2022-10-18T02:35:16.670Z,27.20
2022-10-18T02:38:43.244Z,25.93
2022-10-18T02:42:10.960Z,31.20
2022-10-18T02:45:35.262Z,27.80
2022-10-18T02:48:59.099Z,27.27
2022-10-18T02:52:23.306Z,26.70
2022-10-18T02:55:47.129Z,23.97
2022-10-18T02:59:12.694Z,21.10
2022-10-18T03:02:37.177Z,22.73
2022-10-18T03:06:01.206Z,21.20
2022-10-18T03:09:25.325Z,19.57
2022-10-18T03:12:49.205Z,20.73
2022-10-18T03:16:14.569Z,21.90
2022-10-18T03:19:39.746Z,20.97
2022-10-18T03:23:04.275Z,19.37
2022-10-18T03:26:28.216Z,19.20
2022-10-18T03:29:52.210Z,19.50
2022-10-18T03:33:17.598Z,19.37
2022-10-18T03:36:41.477Z,19.87
2022-10-18T03:40:06.498Z,20.77
2022-10-18T03:43:30.342Z,19.33
2022-10-18T03:46:54.350Z,18.87
2022-10-18T03:50:20.336Z,21.60
2022-10-18T03:53:44.216Z,20.37
2022-10-18T03:57:08.306Z,22.00
2022-10-18T04:00:35.729Z,22.17
2022-10-18T04:03:59.302Z,22.90
2022-10-18T04:07:25.920Z,22.47
2022-10-18T04:10:50.308Z,23.53
2022-10-18T04:14:16.688Z,25.67
2022-10-18T04:17:40.256Z,22.30
2022-10-18T04:21:03.790Z,23.07
2022-10-18T04:24:28.804Z,25.77
2022-10-18T04:27:55.601Z,24.60
2022-10-18T04:31:19.317Z,27.37
2022-10-18T04:34:45.382Z,27.50
2022-10-18T04:38:09.310Z,28.63
2022-10-18T04:41:34.632Z,27.10
2022-10-18T04:44:58.375Z,27.87
2022-10-18T04:48:22.482Z,26.23
2022-10-18T04:51:46.601Z,26.57
2022-10-18T04:55:10.618Z,29.80
2022-10-18T04:58:35.725Z,29.40
2022-10-18T05:01:59.407Z,27.37
2022-10-18T05:05:27.033Z,28.10
2022-10-18T05:08:57.364Z,28.77
2022-10-18T05:12:22.152Z,27.67
2022-10-18T05:15:48.732Z,28.17
2022-10-18T05:19:12.432Z,26.97
2022-10-18T05:22:36.336Z,25.60
2022-10-18T05:26:03.708Z,25.30
2022-10-18T05:32:57.867Z,25.97
2022-10-18T05:36:22.640Z,25.57
2022-10-18T05:39:46.747Z,24.87
2022-10-18T05:43:10.467Z,26.50
2022-10-18T05:46:35.313Z,25.07
2022-10-18T05:50:00.235Z,25.17
2022-10-18T05:53:36.348Z,24.47
2022-10-18T05:57:00.807Z,23.90
2022-10-18T06:00:24.589Z,25.37
2022-10-18T06:03:48.714Z,25.00
2022-10-18T06:07:14.083Z,26.03
2022-10-18T06:10:40.797Z,25.77
2022-10-18T06:14:05.083Z,25.83
2022-10-18T06:17:31.685Z,25.37
2022-10-18T06:20:58.874Z,24.97
2022-10-18T06:24:23.827Z,23.63
2022-10-18T06:27:47.398Z,22.13
2022-10-18T06:31:12.408Z,23.60
2022-10-18T06:34:36.043Z,23.57
2022-10-18T06:37:59.574Z,23.97
2022-10-18T06:41:24.857Z,23.17
2022-10-18T06:44:49.739Z,24.87
2022-10-18T06:48:13.552Z,22.80
2022-10-18T06:51:38.242Z,21.83
2022-10-18T06:55:04.134Z,24.70
2022-10-18T06:58:31.401Z,19.83
2022-10-18T07:01:54.958Z,22.13
2022-10-18T07:05:18.789Z,21.87
2022-10-18T07:08:42.764Z,20.87
2022-10-18T07:12:07.331Z,22.27
2022-10-18T07:18:57.098Z,20.77
2022-10-18T07:22:20.648Z,20.20
2022-10-18T07:25:44.225Z,22.70
2022-10-18T07:29:09.838Z,22.50
2022-10-18T07:32:34.841Z,20.80
2022-10-18T07:36:02.637Z,21.63
2022-10-18T07:39:26.253Z,20.30
2022-10-18T07:42:49.822Z,19.17
2022-10-18T07:46:14.418Z,19.20
2022-10-18T07:49:39.390Z,20.20
2022-10-18T07:53:02.920Z,20.63
2022-10-18T07:56:26.562Z,20.80
2022-10-18T07:59:56.342Z,21.27
2022-10-18T08:03:20.717Z,19.33
2022-10-18T08:06:45.696Z,17.87
2022-10-18T08:10:10.029Z,18.33
2022-10-18T08:13:34.191Z,21.60
2022-10-18T08:16:57.848Z,22.53
2022-10-18T08:20:30.357Z,20.43
2022-10-18T08:23:56.142Z,20.80
2022-10-18T08:27:19.850Z,18.93
2022-10-18T08:30:43.415Z,21.37
2022-10-18T08:34:06.946Z,19.77
2022-10-18T08:37:30.995Z,18.53
2022-10-18T08:40:56.100Z,18.20
2022-10-18T08:44:21.504Z,17.83
2022-10-18T08:47:49.025Z,16.63
2022-10-18T08:51:19.626Z,17.37
2022-10-18T08:54:53.589Z,15.70
2022-10-18T08:58:20.849Z,18.77
2022-10-18T09:02:01.627Z,18.13
2022-10-18T09:05:31.816Z,17.57
2022-10-18T09:09:12.258Z,17.27
2022-10-18T09:12:55.673Z,19.83
2022-10-18T09:16:27.588Z,17.90
2022-10-18T09:20:01.922Z,19.43
2022-10-18T09:23:39.314Z,19.43
2022-10-18T09:27:06.976Z,20.37
2022-10-18T09:30:42.492Z,17.80
2022-10-18T09:34:12.318Z,18.30
2022-10-18T09:37:36.449Z,18.07
2022-10-18T09:41:03.332Z,17.57
2022-10-18T09:44:30.098Z,18.00
2022-10-18T09:48:02.101Z,16.60
2022-10-18T09:51:31.661Z,17.40
2022-10-18T09:54:59.079Z,16.07
2022-10-18T09:58:25.302Z,16.17
2022-10-18T10:01:48.888Z,17.20
2022-10-18T10:05:14.236Z,16.97
2022-10-18T10:08:42.965Z,16.77
2022-10-18T10:12:06.709Z,17.90
2022-10-18T10:15:35.373Z,21.30
2022-10-18T10:19:03.047Z,19.57
2022-10-18T10:22:30.438Z,20.10
2022-10-18T10:25:57.215Z,19.73
2022-10-18T10:29:51.275Z,20.17
2022-10-18T10:33:33.460Z,18.67
2022-10-18T10:36:57.003Z,18.97
2022-10-18T10:40:26.475Z,19.43
2022-10-18T10:43:53.557Z,19.37
2022-10-18T10:47:29.236Z,18.87
2022-10-18T10:51:00.949Z,23.23
2022-10-18T10:54:27.442Z,24.60
2022-10-18T10:57:53.271Z,21.77
2022-10-18T11:01:34.053Z,25.30
2022-10-18T11:05:16.030Z,21.67
2022-10-18T11:08:43.350Z,20.90
2022-10-18T11:12:19.600Z,21.20
2022-10-18T11:15:48.222Z,22.00
2022-10-18T11:19:33.854Z,20.90
2022-10-18T11:23:03.777Z,20.50
2022-10-18T11:26:42.002Z,19.17
2022-10-18T11:30:30.603Z,18.67
2022-10-18T11:34:10.188Z,18.50
2022-10-18T11:37:48.796Z,17.90
2022-10-18T11:41:26.060Z,17.00
2022-10-18T11:44:58.906Z,17.93
2022-10-18T11:48:50.074Z,20.50
2022-10-18T11:52:20.229Z,16.60
2022-10-18T11:55:56.120Z,13.67
2022-10-18T11:59:34.132Z,13.27
2022-10-18T12:03:23.430Z,12.93
2022-10-18T12:06:49.629Z,11.97
2022-10-18T12:10:26.329Z,11.20
2022-10-18T12:14:05.488Z,10.23
2022-10-18T12:17:44.024Z,10.60
2022-10-18T12:21:12.669Z,9.13
2022-10-18T12:24:37.933Z,10.90
2022-10-18T12:28:06.935Z,9.97
2022-10-18T12:31:37.814Z,9.73
2022-10-18T12:35:05.691Z,7.57
2022-10-18T12:38:31.555Z,8.77
2022-10-18T12:41:56.625Z,8.13
2022-10-18T12:45:29.166Z,9.17
2022-10-18T12:49:05.089Z,7.47
2022-10-18T12:52:31.874Z,6.87
2022-10-18T12:55:55.777Z,6.77
2022-10-18T12:59:53.719Z,6.00
2022-10-18T13:04:00.639Z,5.80
2022-10-18T13:07:43.103Z,6.30
2022-10-18T13:11:30.257Z,5.57
2022-10-18T13:15:12.545Z,5.97
2022-10-18T13:18:54.101Z,6.23
2022-10-18T13:22:29.481Z,5.47
2022-10-18T13:26:03.668Z,5.50
2022-10-18T13:29:46.555Z,4.43
2022-10-18T13:33:27.385Z,5.50
2022-10-18T13:36:58.392Z,4.90
2022-10-18T13:40:26.792Z,4.70
2022-10-18T13:44:18.613Z,4.30
2022-10-18T13:47:42.220Z,4.90
2022-10-18T13:51:24.257Z,5.70
2022-10-18T13:55:02.329Z,4.67
2022-10-18T13:58:35.099Z,5.57
2022-10-18T14:02:36.452Z,5.90
2022-10-18T14:06:09.620Z,5.00
2022-10-18T14:09:45.074Z,4.90
2022-10-18T14:13:18.878Z,4.57
2022-10-18T14:16:48.450Z,3.70
2022-10-18T14:20:27.222Z,3.80
2022-10-18T14:23:54.185Z,4.50
2022-10-18T14:27:19.963Z,4.20
2022-10-18T14:30:55.509Z,3.43
2022-10-18T14:34:19.293Z,4.43
2022-10-18T14:37:44.892Z,3.63
2022-10-18T14:41:16.338Z,3.37
2022-10-18T14:44:39.902Z,3.67
2022-10-18T14:48:07.845Z,3.60
2022-10-18T14:51:35.981Z,3.00
2022-10-18T14:55:03.122Z,3.20
2022-10-18T14:58:26.842Z,4.20
2022-10-18T15:01:56.546Z,4.90
2022-10-18T15:05:22.782Z,3.67
2022-10-18T15:08:48.631Z,3.80
2022-10-18T15:12:15.920Z,3.63
2022-10-18T15:15:40.809Z,3.07
2022-10-18T15:19:06.793Z,3.17
2022-10-18T15:22:33.315Z,3.33
2022-10-18T15:26:04.087Z,3.60
2022-10-18T15:29:35.261Z,3.40
2022-10-18T15:33:01.206Z,3.53
2022-10-18T15:36:31.076Z,6.33
2022-10-18T15:40:20.384Z,5.83
2022-10-18T15:43:44.044Z,5.40
2022-10-18T15:47:21.748Z,3.53
2022-10-18T15:50:47.965Z,3.67
2022-10-18T15:54:18.977Z,4.13
2022-10-18T15:57:42.562Z,2.80
2022-10-18T16:01:08.297Z,3.10
2022-10-18T16:04:34.321Z,3.57
2022-10-18T16:07:58.082Z,3.10
2022-10-18T16:11:24.309Z,3.40
2022-10-18T16:14:47.922Z,3.27
2022-10-18T16:18:17.047Z,3.77
2022-10-18T16:21:42.841Z,3.30
2022-10-18T16:25:07.089Z,3.97
2022-10-18T16:28:31.868Z,5.90
2022-10-18T16:31:57.967Z,8.67
2022-10-18T16:35:21.805Z,6.07
2022-10-18T16:38:48.053Z,6.53
2022-10-18T16:42:11.607Z,4.50
2022-10-18T16:45:37.613Z,5.57
2022-10-18T16:49:01.878Z,5.63
2022-10-18T16:52:25.562Z,10.20
2022-10-18T16:55:54.319Z,6.03
2022-10-18T16:59:23.961Z,8.27
2022-10-18T17:02:51.294Z,13.93
2022-10-18T17:06:17.371Z,17.77
2022-10-18T17:09:40.931Z,5.17
2022-10-18T17:13:05.889Z,6.97
2022-10-18T17:16:32.004Z,6.10
2022-10-18T17:19:55.810Z,8.30
2022-10-18T17:23:19.663Z,12.67
2022-10-18T17:26:43.370Z,11.00
2022-10-18T17:30:09.711Z,10.03
2022-10-18T17:33:33.285Z,9.33
2022-10-18T17:36:56.912Z,8.13
2022-10-18T17:40:23.772Z,7.07
2022-10-18T17:43:47.957Z,5.57
2022-10-18T17:47:13.147Z,5.70
2022-10-18T17:50:36.714Z,4.70
2022-10-18T17:54:00.333Z,4.47
2022-10-18T17:57:24.198Z,4.53
2022-10-18T18:00:47.769Z,4.37
2022-10-18T18:04:13.418Z,4.03
2022-10-18T18:07:37.180Z,6.20
2022-10-18T18:11:00.809Z,5.50
2022-10-18T18:14:24.699Z,4.67
2022-10-18T18:17:56.686Z,4.93
2022-10-18T18:21:23.455Z,6.10
2022-10-18T18:24:47.021Z,6.13
2022-10-18T18:28:10.753Z,4.77
2022-10-18T18:31:38.794Z,6.00
2022-10-18T18:35:06.845Z,5.40
2022-10-18T18:38:32.620Z,5.43
2022-10-18T18:41:57.170Z,5.90
2022-10-18T18:45:20.706Z,5.73
2022-10-18T18:48:44.447Z,5.57
2022-10-18T18:52:08.462Z,4.63
2022-10-18T18:55:34.514Z,5.67
2022-10-18T18:59:00.240Z,5.20
2022-10-18T19:02:24.026Z,6.50
2022-10-18T19:05:47.702Z,6.40
2022-10-18T19:09:19.074Z,6.03
2022-10-18T19:12:44.058Z,6.23
2022-10-18T19:16:26.086Z,4.97
2022-10-18T19:19:50.414Z,4.70
2022-10-18T19:23:14.349Z,8.47
2022-10-18T19:26:44.515Z,6.20
2022-10-18T19:30:12.269Z,5.53
2022-10-18T19:33:48.194Z,5.43
2022-10-18T19:37:20.101Z,4.90
2022-10-18T19:40:43.688Z,5.10
2022-10-18T19:44:07.581Z,5.83
2022-10-18T19:47:32.644Z,4.80
2022-10-18T19:50:56.240Z,4.20
2022-10-18T19:54:19.841Z,5.23
2022-10-18T19:57:43.591Z,5.27
2022-10-18T20:01:07.169Z,5.10
2022-10-18T20:04:34.702Z,5.30
2022-10-18T20:07:58.705Z,5.37
2022-10-18T20:11:23.690Z,5.33
2022-10-18T20:14:47.226Z,5.13
2022-10-18T20:18:11.042Z,4.97
2022-10-18T20:21:37.618Z,4.87
2022-10-18T20:25:01.277Z,5.33
2022-10-18T20:28:25.374Z,5.17
2022-10-18T20:31:48.978Z,5.10
2022-10-18T20:35:12.738Z,5.17
2022-10-18T20:38:39.332Z,5.90
2022-10-18T20:42:02.908Z,5.20
2022-10-18T20:45:26.552Z,5.10
2022-10-18T20:48:51.353Z,4.80
2022-10-18T20:52:15.199Z,5.53
2022-10-18T20:55:40.222Z,4.87
2022-10-18T20:59:06.338Z,5.20
2022-10-18T21:02:30.030Z,5.60
2022-10-18T21:05:53.576Z,5.77
2022-10-18T21:09:19.274Z,5.27
2022-10-18T21:12:44.316Z,4.67
2022-10-18T21:16:09.122Z,5.27
2022-10-18T21:19:32.764Z,4.67
2022-10-18T21:22:57.286Z,4.60
2022-10-18T21:26:23.903Z,4.57
2022-10-18T21:29:50.622Z,4.57
2022-10-18T21:33:14.321Z,5.77
2022-10-18T21:36:39.221Z,5.27
2022-10-18T21:40:05.799Z,6.13
2022-10-18T21:43:30.031Z,5.10
2022-10-18T21:46:56.856Z,5.33
2022-10-18T21:50:20.625Z,5.17
2022-10-18T21:53:45.497Z,6.00
2022-10-18T21:57:09.666Z,5.60
2022-10-18T22:00:33.602Z,5.30
2022-10-18T22:04:00.682Z,4.73
2022-10-18T22:07:24.250Z,5.87
2022-10-18T22:10:48.641Z,5.27
2022-10-18T22:14:12.981Z,4.67
2022-10-18T22:17:36.927Z,7.03
2022-10-18T22:21:04.894Z,4.80
2022-10-18T22:24:28.748Z,5.87
2022-10-18T22:27:52.714Z,6.20
2022-10-18T22:31:18.147Z,6.33
2022-10-18T22:34:42.894Z,5.40
2022-10-18T22:38:08.078Z,5.50
2022-10-18T22:41:31.974Z,6.63
2022-10-18T22:44:55.705Z,6.57
2022-10-18T22:48:19.724Z,5.70
2022-10-18T22:51:43.736Z,6.70
2022-10-18T22:55:09.686Z,5.00
2022-10-18T22:58:34.254Z,5.30
2022-10-18T23:01:58.799Z,4.60
2022-10-18T23:05:26.369Z,6.10
2022-10-18T23:08:53.553Z,4.90
2022-10-18T23:12:18.484Z,5.40
2022-10-18T23:15:44.105Z,6.57
2022-10-18T23:19:07.744Z,5.27
2022-10-18T23:22:31.991Z,6.20
2022-10-18T23:25:56.729Z,5.73
2022-10-18T23:29:22.386Z,4.80
2022-10-18T23:32:46.032Z,5.00
2022-10-18T23:36:10.354Z,4.57
2022-10-18T23:39:34.726Z,6.10
2022-10-18T23:42:58.877Z,8.07
2022-10-18T23:46:26.228Z,5.20
2022-10-18T23:49:53.109Z,6.93
2022-10-18T23:53:16.866Z,6.00
2022-10-18T23:56:40.764Z,6.30
